sensor_id;sensor_type;location;lat;lon;timestamp;P1;durP1;ratioP1;P2;durP2;ratioP2
72132;SDS011;60008;50.826;6.896;2022-12-17T00:01:08;25.42;;;9.23;;
72132;SDS011;60008;50.826;6.896;2022-12-17T00:04:12;31.17;;;9.93;;
72132;SDS011;60008;50.826;6.896;2022-12-17T00:07:16;30.92;;;8.55;;
72132;SDS011;60008;50.826;6.896;2022-12-17T00:10:19;28.73;;;8.77;;
72132;SDS011;60008;50.826;6.896;2022-12-17T00:13:23;30.23;;;8.83;;
72132;SDS011;60008;50.826;6.896;2022-12-17T00:16:27;32.20;;;10.80;;
72132;SDS011;60008;50.826;6.896;2022-12-17T00:19:30;33.28;;;10.00;;
72132;SDS011;60008;50.826;6.896;2022-12-17T00:22:34;29.73;;;10.32;;
72132;SDS011;60008;50.826;6.896;2022-12-17T00:25:38;33.45;;;9.90;;
72132;SDS011;60008;50.826;6.896;2022-12-17T00:28:41;24.33;;;7.83;;
72132;SDS011;60008;50.826;6.896;2022-12-17T00:31:45;31.85;;;8.93;;
72132;SDS011;60008;50.826;6.896;2022-12-17T00:34:49;24.80;;;9.68;;
72132;SDS011;60008;50.826;6.896;2022-12-17T00:37:53;28.88;;;9.73;;
72132;SDS011;60008;50.826;6.896;2022-12-17T00:40:57;32.88;;;9.90;;
72132;SDS011;60008;50.826;6.896;2022-12-17T00:44:00;32.53;;;10.17;;
72132;SDS011;60008;50.826;6.896;2022-12-17T00:47:04;34.95;;;9.57;;
72132;SDS011;60008;50.826;6.896;2022-12-17T00:50:08;28.30;;;9.20;;
72132;SDS011;60008;50.826;6.896;2022-12-17T00:53:12;28.55;;;8.68;;
72132;SDS011;60008;50.826;6.896;2022-12-17T00:56:15;25.88;;;9.40;;
72132;SDS011;60008;50.826;6.896;2022-12-17T00:59:19;30.77;;;10.23;;
72132;SDS011;60008;50.826;6.896;2022-12-17T01:02:23;36.38;;;10.98;;
72132;SDS011;60008;50.826;6.896;2022-12-17T01:05:27;31.27;;;10.93;;
72132;SDS011;60008;50.826;6.896;2022-12-17T01:08:31;25.90;;;9.32;;
72132;SDS011;60008;50.826;6.896;2022-12-17T01:11:34;26.70;;;10.75;;
72132;SDS011;60008;50.826;6.896;2022-12-17T01:14:40;28.50;;;10.23;;
72132;SDS011;60008;50.826;6.896;2022-12-17T01:17:44;34.78;;;11.07;;
72132;SDS011;60008;50.826;6.896;2022-12-17T01:20:47;36.28;;;10.77;;
72132;SDS011;60008;50.826;6.896;2022-12-17T01:23:51;31.15;;;9.40;;
72132;SDS011;60008;50.826;6.896;2022-12-17T01:26:55;33.13;;;10.45;;
72132;SDS011;60008;50.826;6.896;2022-12-17T01:29:58;35.27;;;9.17;;
72132;SDS011;60008;50.826;6.896;2022-12-17T01:33:03;34.72;;;11.07;;
72132;SDS011;60008;50.826;6.896;2022-12-17T01:36:08;32.35;;;9.95;;
72132;SDS011;60008;50.826;6.896;2022-12-17T01:39:12;26.02;;;9.48;;
72132;SDS011;60008;50.826;6.896;2022-12-17T01:42:15;28.90;;;10.13;;
72132;SDS011;60008;50.826;6.896;2022-12-17T01:45:19;34.07;;;10.77;;
72132;SDS011;60008;50.826;6.896;2022-12-17T01:48:27;23.90;;;8.80;;
72132;SDS011;60008;50.826;6.896;2022-12-17T01:51:36;32.20;;;9.10;;
72132;SDS011;60008;50.826;6.896;2022-12-17T01:54:40;25.70;;;8.88;;
72132;SDS011;60008;50.826;6.896;2022-12-17T01:57:44;21.02;;;6.50;;
72132;SDS011;60008;50.826;6.896;2022-12-17T02:00:48;21.73;;;6.57;;
72132;SDS011;60008;50.826;6.896;2022-12-17T02:03:51;19.35;;;7.05;;
72132;SDS011;60008;50.826;6.896;2022-12-17T02:07:02;26.15;;;7.72;;
72132;SDS011;60008;50.826;6.896;2022-12-17T02:11:16;21.30;;;7.53;;
72132;SDS011;60008;50.826;6.896;2022-12-17T02:14:30;22.30;;;8.75;;
72132;SDS011;60008;50.826;6.896;2022-12-17T02:17:39;24.77;;;7.73;;
72132;SDS011;60008;50.826;6.896;2022-12-17T02:20:50;29.52;;;9.20;;
72132;SDS011;60008;50.826;6.896;2022-12-17T02:24:01;32.03;;;10.35;;
72132;SDS011;60008;50.826;6.896;2022-12-17T02:27:33;33.35;;;9.23;;
72132;SDS011;60008;50.826;6.896;2022-12-17T02:30:37;27.48;;;8.98;;
72132;SDS011;60008;50.826;6.896;2022-12-17T02:33:41;16.17;;;6.37;;
72132;SDS011;60008;50.826;6.896;2022-12-17T02:36:45;33.25;;;10.23;;
72132;SDS011;60008;50.826;6.896;2022-12-17T02:39:49;28.63;;;8.85;;
72132;SDS011;60008;50.826;6.896;2022-12-17T02:42:53;21.23;;;7.57;;
72132;SDS011;60008;50.826;6.896;2022-12-17T02:45:56;26.83;;;8.10;;
72132;SDS011;60008;50.826;6.896;2022-12-17T02:49:01;36.57;;;8.67;;
72132;SDS011;60008;50.826;6.896;2022-12-17T02:52:05;31.70;;;10.07;;
72132;SDS011;60008;50.826;6.896;2022-12-17T02:55:17;21.48;;;7.38;;
72132;SDS011;60008;50.826;6.896;2022-12-17T02:58:20;35.75;;;9.10;;
72132;SDS011;60008;50.826;6.896;2022-12-17T03:01:24;30.52;;;8.38;;
72132;SDS011;60008;50.826;6.896;2022-12-17T03:04:28;29.80;;;9.57;;
72132;SDS011;60008;50.826;6.896;2022-12-17T03:07:31;29.10;;;9.98;;
72132;SDS011;60008;50.826;6.896;2022-12-17T03:10:35;21.45;;;7.03;;
72132;SDS011;60008;50.826;6.896;2022-12-17T03:13:39;36.40;;;9.10;;
72132;SDS011;60008;50.826;6.896;2022-12-17T03:16:42;27.48;;;9.10;;
72132;SDS011;60008;50.826;6.896;2022-12-17T03:19:46;32.73;;;8.90;;
72132;SDS011;60008;50.826;6.896;2022-12-17T03:22:50;28.50;;;7.90;;
72132;SDS011;60008;50.826;6.896;2022-12-17T03:25:56;13.80;;;4.68;;
72132;SDS011;60008;50.826;6.896;2022-12-17T03:29:01;28.05;;;7.95;;
72132;SDS011;60008;50.826;6.896;2022-12-17T03:32:05;25.08;;;7.13;;
72132;SDS011;60008;50.826;6.896;2022-12-17T03:35:08;25.10;;;8.13;;
72132;SDS011;60008;50.826;6.896;2022-12-17T03:38:19;29.98;;;8.45;;
72132;SDS011;60008;50.826;6.896;2022-12-17T03:41:23;26.13;;;8.43;;
72132;SDS011;60008;50.826;6.896;2022-12-17T03:44:27;24.55;;;8.45;;
72132;SDS011;60008;50.826;6.896;2022-12-17T03:47:30;22.67;;;8.27;;
72132;SDS011;60008;50.826;6.896;2022-12-17T03:50:34;29.60;;;8.03;;
72132;SDS011;60008;50.826;6.896;2022-12-17T03:53:38;21.52;;;7.57;;
72132;SDS011;60008;50.826;6.896;2022-12-17T03:56:42;28.00;;;8.40;;
72132;SDS011;60008;50.826;6.896;2022-12-17T03:59:46;31.23;;;9.52;;
72132;SDS011;60008;50.826;6.896;2022-12-17T04:02:49;28.02;;;7.38;;
72132;SDS011;60008;50.826;6.896;2022-12-17T04:05:53;25.83;;;8.53;;
72132;SDS011;60008;50.826;6.896;2022-12-17T04:08:56;23.25;;;8.65;;
72132;SDS011;60008;50.826;6.896;2022-12-17T04:12:00;27.98;;;7.93;;
72132;SDS011;60008;50.826;6.896;2022-12-17T04:15:04;21.15;;;7.68;;
72132;SDS011;60008;50.826;6.896;2022-12-17T04:18:08;22.75;;;8.13;;
72132;SDS011;60008;50.826;6.896;2022-12-17T04:21:12;20.47;;;6.90;;
72132;SDS011;60008;50.826;6.896;2022-12-17T04:24:15;26.00;;;8.07;;
72132;SDS011;60008;50.826;6.896;2022-12-17T04:27:19;24.08;;;7.93;;
72132;SDS011;60008;50.826;6.896;2022-12-17T04:30:23;19.58;;;6.43;;
72132;SDS011;60008;50.826;6.896;2022-12-17T04:33:27;27.58;;;8.30;;
72132;SDS011;60008;50.826;6.896;2022-12-17T04:36:30;24.17;;;7.07;;
72132;SDS011;60008;50.826;6.896;2022-12-17T04:39:47;26.63;;;8.65;;
72132;SDS011;60008;50.826;6.896;2022-12-17T04:42:51;25.65;;;7.82;;
72132;SDS011;60008;50.826;6.896;2022-12-17T04:45:55;30.30;;;7.88;;
72132;SDS011;60008;50.826;6.896;2022-12-17T04:48:59;25.42;;;8.07;;
72132;SDS011;60008;50.826;6.896;2022-12-17T04:52:03;24.50;;;7.27;;
72132;SDS011;60008;50.826;6.896;2022-12-17T04:55:07;21.73;;;7.03;;
72132;SDS011;60008;50.826;6.896;2022-12-17T04:58:11;24.95;;;7.65;;
72132;SDS011;60008;50.826;6.896;2022-12-17T05:01:15;26.67;;;7.30;;
72132;SDS011;60008;50.826;6.896;2022-12-17T05:04:18;17.70;;;5.60;;
72132;SDS011;60008;50.826;6.896;2022-12-17T05:07:22;19.33;;;6.93;;
72132;SDS011;60008;50.826;6.896;2022-12-17T05:10:26;28.85;;;7.45;;
72132;SDS011;60008;50.826;6.896;2022-12-17T05:13:29;19.52;;;6.93;;
72132;SDS011;60008;50.826;6.896;2022-12-17T05:16:33;21.75;;;7.22;;
72132;SDS011;60008;50.826;6.896;2022-12-17T05:19:37;24.77;;;8.30;;
72132;SDS011;60008;50.826;6.896;2022-12-17T05:22:41;19.10;;;6.30;;
72132;SDS011;60008;50.826;6.896;2022-12-17T05:25:44;20.02;;;6.10;;
72132;SDS011;60008;50.826;6.896;2022-12-17T05:28:48;21.50;;;7.03;;
72132;SDS011;60008;50.826;6.896;2022-12-17T05:31:59;24.98;;;7.97;;
72132;SDS011;60008;50.826;6.896;2022-12-17T05:35:03;24.48;;;8.10;;
72132;SDS011;60008;50.826;6.896;2022-12-17T05:38:08;22.77;;;7.17;;
72132;SDS011;60008;50.826;6.896;2022-12-17T05:41:13;24.08;;;8.05;;
72132;SDS011;60008;50.826;6.896;2022-12-17T05:44:16;18.80;;;7.07;;
72132;SDS011;60008;50.826;6.896;2022-12-17T05:47:20;29.02;;;8.02;;
72132;SDS011;60008;50.826;6.896;2022-12-17T05:50:24;21.50;;;6.55;;
72132;SDS011;60008;50.826;6.896;2022-12-17T05:53:28;26.13;;;7.10;;
72132;SDS011;60008;50.826;6.896;2022-12-17T05:56:31;27.35;;;7.53;;
72132;SDS011;60008;50.826;6.896;2022-12-17T05:59:35;23.75;;;6.68;;
72132;SDS011;60008;50.826;6.896;2022-12-17T06:02:38;7.43;;;3.50;;
72132;SDS011;60008;50.826;6.896;2022-12-17T06:05:42;24.77;;;7.05;;
72132;SDS011;60008;50.826;6.896;2022-12-17T06:08:46;8.83;;;2.60;;
72132;SDS011;60008;50.826;6.896;2022-12-17T06:11:49;18.83;;;6.40;;
72132;SDS011;60008;50.826;6.896;2022-12-17T06:14:53;18.92;;;6.32;;
72132;SDS011;60008;50.826;6.896;2022-12-17T06:17:57;15.50;;;5.75;;
72132;SDS011;60008;50.826;6.896;2022-12-17T06:21:01;26.67;;;7.75;;
72132;SDS011;60008;50.826;6.896;2022-12-17T06:24:05;4.70;;;2.07;;
72132;SDS011;60008;50.826;6.896;2022-12-17T06:27:09;17.10;;;5.65;;
72132;SDS011;60008;50.826;6.896;2022-12-17T06:30:13;22.83;;;7.63;;
72132;SDS011;60008;50.826;6.896;2022-12-17T06:33:16;17.00;;;5.80;;
72132;SDS011;60008;50.826;6.896;2022-12-17T06:36:20;16.58;;;6.25;;
72132;SDS011;60008;50.826;6.896;2022-12-17T06:39:24;15.97;;;5.83;;
72132;SDS011;60008;50.826;6.896;2022-12-17T06:42:28;7.80;;;3.55;;
72132;SDS011;60008;50.826;6.896;2022-12-17T06:45:31;16.20;;;5.72;;
72132;SDS011;60008;50.826;6.896;2022-12-17T06:48:34;21.60;;;7.82;;
72132;SDS011;60008;50.826;6.896;2022-12-17T06:51:38;20.17;;;6.53;;
72132;SDS011;60008;50.826;6.896;2022-12-17T06:54:42;15.67;;;6.67;;
72132;SDS011;60008;50.826;6.896;2022-12-17T06:57:46;12.02;;;4.75;;
72132;SDS011;60008;50.826;6.896;2022-12-17T07:00:49;12.93;;;5.53;;
72132;SDS011;60008;50.826;6.896;2022-12-17T07:03:53;14.82;;;4.80;;
72132;SDS011;60008;50.826;6.896;2022-12-17T07:06:58;20.15;;;6.57;;
72132;SDS011;60008;50.826;6.896;2022-12-17T07:10:02;19.37;;;7.07;;
72132;SDS011;60008;50.826;6.896;2022-12-17T07:13:19;20.55;;;6.55;;
72132;SDS011;60008;50.826;6.896;2022-12-17T07:16:23;21.23;;;6.28;;
72132;SDS011;60008;50.826;6.896;2022-12-17T07:19:28;22.90;;;7.25;;
72132;SDS011;60008;50.826;6.896;2022-12-17T07:22:31;26.05;;;8.27;;
72132;SDS011;60008;50.826;6.896;2022-12-17T07:25:35;21.67;;;7.30;;
72132;SDS011;60008;50.826;6.896;2022-12-17T07:28:39;22.27;;;7.45;;
72132;SDS011;60008;50.826;6.896;2022-12-17T07:31:42;10.40;;;3.78;;
72132;SDS011;60008;50.826;6.896;2022-12-17T07:34:46;14.05;;;4.70;;
72132;SDS011;60008;50.826;6.896;2022-12-17T07:37:57;13.55;;;5.55;;
72132;SDS011;60008;50.826;6.896;2022-12-17T07:41:02;17.73;;;5.80;;
72132;SDS011;60008;50.826;6.896;2022-12-17T07:44:05;8.90;;;3.42;;
72132;SDS011;60008;50.826;6.896;2022-12-17T07:47:09;4.50;;;2.17;;
72132;SDS011;60008;50.826;6.896;2022-12-17T07:50:12;18.42;;;4.93;;
72132;SDS011;60008;50.826;6.896;2022-12-17T07:53:16;10.35;;;3.20;;
72132;SDS011;60008;50.826;6.896;2022-12-17T07:56:20;14.13;;;5.13;;
72132;SDS011;60008;50.826;6.896;2022-12-17T07:59:24;16.00;;;5.00;;
72132;SDS011;60008;50.826;6.896;2022-12-17T08:02:28;12.25;;;4.40;;
72132;SDS011;60008;50.826;6.896;2022-12-17T08:05:34;10.45;;;4.40;;
72132;SDS011;60008;50.826;6.896;2022-12-17T08:08:37;11.90;;;4.63;;
72132;SDS011;60008;50.826;6.896;2022-12-17T08:11:41;13.63;;;4.83;;
72132;SDS011;60008;50.826;6.896;2022-12-17T08:14:45;16.23;;;5.97;;
72132;SDS011;60008;50.826;6.896;2022-12-17T08:17:48;6.65;;;2.70;;
72132;SDS011;60008;50.826;6.896;2022-12-17T08:20:52;13.00;;;4.88;;
72132;SDS011;60008;50.826;6.896;2022-12-17T08:23:56;17.58;;;5.72;;
72132;SDS011;60008;50.826;6.896;2022-12-17T08:27:00;13.00;;;3.23;;
72132;SDS011;60008;50.826;6.896;2022-12-17T08:30:04;17.48;;;5.93;;
72132;SDS011;60008;50.826;6.896;2022-12-17T08:33:08;9.75;;;3.95;;
72132;SDS011;60008;50.826;6.896;2022-12-17T08:36:12;14.45;;;5.03;;
72132;SDS011;60008;50.826;6.896;2022-12-17T08:39:16;12.30;;;4.82;;
72132;SDS011;60008;50.826;6.896;2022-12-17T08:42:19;19.33;;;6.43;;
72132;SDS011;60008;50.826;6.896;2022-12-17T08:45:23;17.25;;;5.05;;
72132;SDS011;60008;50.826;6.896;2022-12-17T08:48:27;13.25;;;4.45;;
72132;SDS011;60008;50.826;6.896;2022-12-17T08:51:31;4.60;;;1.65;;
72132;SDS011;60008;50.826;6.896;2022-12-17T08:54:34;10.55;;;4.63;;
72132;SDS011;60008;50.826;6.896;2022-12-17T08:57:38;16.70;;;5.77;;
72132;SDS011;60008;50.826;6.896;2022-12-17T09:00:42;20.08;;;6.03;;
72132;SDS011;60008;50.826;6.896;2022-12-17T09:03:46;5.95;;;2.53;;
72132;SDS011;60008;50.826;6.896;2022-12-17T09:06:50;9.18;;;3.60;;
72132;SDS011;60008;50.826;6.896;2022-12-17T09:09:53;12.13;;;3.83;;
72132;SDS011;60008;50.826;6.896;2022-12-17T09:13:00;3.90;;;1.63;;
72132;SDS011;60008;50.826;6.896;2022-12-17T09:16:05;12.20;;;4.15;;
72132;SDS011;60008;50.826;6.896;2022-12-17T09:19:09;16.40;;;4.65;;
72132;SDS011;60008;50.826;6.896;2022-12-17T09:22:13;13.90;;;5.47;;
72132;SDS011;60008;50.826;6.896;2022-12-17T09:25:17;19.60;;;5.70;;
72132;SDS011;60008;50.826;6.896;2022-12-17T09:28:21;6.40;;;3.03;;
72132;SDS011;60008;50.826;6.896;2022-12-17T09:31:24;13.98;;;4.25;;
72132;SDS011;60008;50.826;6.896;2022-12-17T09:34:28;2.53;;;0.90;;
72132;SDS011;60008;50.826;6.896;2022-12-17T09:37:32;12.30;;;4.28;;
72132;SDS011;60008;50.826;6.896;2022-12-17T09:40:35;5.40;;;2.47;;
72132;SDS011;60008;50.826;6.896;2022-12-17T09:43:47;11.60;;;4.27;;
72132;SDS011;60008;50.826;6.896;2022-12-17T09:50:26;11.55;;;5.97;;
72132;SDS011;60008;50.826;6.896;2022-12-17T09:53:37;15.52;;;5.68;;
72132;SDS011;60008;50.826;6.896;2022-12-17T09:56:45;16.77;;;5.13;;
72132;SDS011;60008;50.826;6.896;2022-12-17T09:59:51;21.13;;;6.43;;
72132;SDS011;60008;50.826;6.896;2022-12-17T10:02:54;13.80;;;4.32;;
72132;SDS011;60008;50.826;6.896;2022-12-17T10:05:59;16.20;;;5.40;;
72132;SDS011;60008;50.826;6.896;2022-12-17T10:09:26;17.50;;;6.20;;
72132;SDS011;60008;50.826;6.896;2022-12-17T10:12:32;13.48;;;5.35;;
72132;SDS011;60008;50.826;6.896;2022-12-17T10:15:35;9.13;;;3.07;;
72132;SDS011;60008;50.826;6.896;2022-12-17T10:18:39;17.88;;;5.28;;
72132;SDS011;60008;50.826;6.896;2022-12-17T10:21:45;16.90;;;4.30;;
72132;SDS011;60008;50.826;6.896;2022-12-17T10:24:48;16.95;;;5.85;;
72132;SDS011;60008;50.826;6.896;2022-12-17T10:27:52;17.25;;;6.30;;
72132;SDS011;60008;50.826;6.896;2022-12-17T10:30:56;6.67;;;2.73;;
72132;SDS011;60008;50.826;6.896;2022-12-17T10:34:04;14.32;;;4.03;;
72132;SDS011;60008;50.826;6.896;2022-12-17T10:37:16;19.88;;;6.47;;
72132;SDS011;60008;50.826;6.896;2022-12-17T10:40:24;16.10;;;5.90;;
72132;SDS011;60008;50.826;6.896;2022-12-17T10:43:31;12.70;;;4.75;;
72132;SDS011;60008;50.826;6.896;2022-12-17T10:46:36;18.03;;;5.77;;
72132;SDS011;60008;50.826;6.896;2022-12-17T10:49:40;14.18;;;5.25;;
72132;SDS011;60008;50.826;6.896;2022-12-17T10:52:44;19.95;;;7.50;;
72132;SDS011;60008;50.826;6.896;2022-12-17T10:55:51;22.05;;;6.95;;
72132;SDS011;60008;50.826;6.896;2022-12-17T10:58:57;17.58;;;6.80;;
72132;SDS011;60008;50.826;6.896;2022-12-17T11:02:23;15.63;;;5.83;;
72132;SDS011;60008;50.826;6.896;2022-12-17T11:05:30;18.00;;;6.30;;
72132;SDS011;60008;50.826;6.896;2022-12-17T11:08:43;18.33;;;6.13;;
72132;SDS011;60008;50.826;6.896;2022-12-17T11:11:47;16.35;;;5.50;;
72132;SDS011;60008;50.826;6.896;2022-12-17T11:14:53;18.92;;;6.47;;
72132;SDS011;60008;50.826;6.896;2022-12-17T11:18:00;13.63;;;5.40;;
72132;SDS011;60008;50.826;6.896;2022-12-17T11:21:06;16.23;;;5.68;;
72132;SDS011;60008;50.826;6.896;2022-12-17T11:24:20;29.73;;;9.30;;
72132;SDS011;60008;50.826;6.896;2022-12-17T11:27:30;12.77;;;6.15;;
72132;SDS011;60008;50.826;6.896;2022-12-17T11:30:40;15.23;;;6.25;;
72132;SDS011;60008;50.826;6.896;2022-12-17T11:37:29;15.52;;;5.93;;
72132;SDS011;60008;50.826;6.896;2022-12-17T11:40:41;12.73;;;4.68;;
72132;SDS011;60008;50.826;6.896;2022-12-17T11:47:22;13.15;;;5.22;;
72132;SDS011;60008;50.826;6.896;2022-12-17T11:50:49;8.77;;;4.03;;
72132;SDS011;60008;50.826;6.896;2022-12-17T12:03:58;11.57;;;5.10;;
72132;SDS011;60008;50.826;6.896;2022-12-17T12:07:45;11.03;;;3.97;;
72132;SDS011;60008;50.826;6.896;2022-12-17T12:11:02;15.40;;;5.60;;
72132;SDS011;60008;50.826;6.896;2022-12-17T12:14:20;16.00;;;5.45;;
72132;SDS011;60008;50.826;6.896;2022-12-17T12:17:40;11.63;;;4.55;;
72132;SDS011;60008;50.826;6.896;2022-12-17T12:27:49;15.18;;;4.97;;
72132;SDS011;60008;50.826;6.896;2022-12-17T12:34:30;4.65;;;2.33;;
72132;SDS011;60008;50.826;6.896;2022-12-17T12:37:38;16.45;;;6.13;;
72132;SDS011;60008;50.826;6.896;2022-12-17T12:40:45;15.80;;;5.13;;
72132;SDS011;60008;50.826;6.896;2022-12-17T12:43:58;18.42;;;6.05;;
72132;SDS011;60008;50.826;6.896;2022-12-17T12:47:06;13.48;;;5.80;;
72132;SDS011;60008;50.826;6.896;2022-12-17T12:50:23;16.13;;;5.95;;
72132;SDS011;60008;50.826;6.896;2022-12-17T12:53:36;14.57;;;5.22;;
72132;SDS011;60008;50.826;6.896;2022-12-17T12:56:40;15.47;;;5.37;;
72132;SDS011;60008;50.826;6.896;2022-12-17T12:59:46;11.25;;;5.20;;
72132;SDS011;60008;50.826;6.896;2022-12-17T13:02:52;11.50;;;4.47;;
72132;SDS011;60008;50.826;6.896;2022-12-17T13:05:55;9.75;;;3.97;;
72132;SDS011;60008;50.826;6.896;2022-12-17T13:08:40;13.98;;;5.53;;
72132;SDS011;60008;50.826;6.896;2022-12-17T13:11:27;9.87;;;3.97;;
72132;SDS011;60008;50.826;6.896;2022-12-17T13:20:21;13.57;;;5.20;;
72132;SDS011;60008;50.826;6.896;2022-12-17T13:29:33;12.90;;;5.15;;
72132;SDS011;60008;50.826;6.896;2022-12-17T13:32:27;11.85;;;4.95;;
72132;SDS011;60008;50.826;6.896;2022-12-17T13:38:42;5.88;;;2.63;;
72132;SDS011;60008;50.826;6.896;2022-12-17T13:41:35;8.57;;;2.90;;
72132;SDS011;60008;50.826;6.896;2022-12-17T13:44:23;12.00;;;4.85;;
72132;SDS011;60008;50.826;6.896;2022-12-17T13:47:18;12.27;;;4.95;;
72132;SDS011;60008;50.826;6.896;2022-12-17T13:50:23;14.65;;;4.93;;
72132;SDS011;60008;50.826;6.896;2022-12-17T13:53:20;10.30;;;4.45;;
72132;SDS011;60008;50.826;6.896;2022-12-17T13:56:05;10.87;;;4.03;;
72132;SDS011;60008;50.826;6.896;2022-12-17T13:58:51;9.25;;;4.10;;
72132;SDS011;60008;50.826;6.896;2022-12-17T14:01:44;15.20;;;5.25;;
72132;SDS011;60008;50.826;6.896;2022-12-17T14:04:31;11.70;;;4.35;;
72132;SDS011;60008;50.826;6.896;2022-12-17T14:07:16;12.85;;;5.25;;
72132;SDS011;60008;50.826;6.896;2022-12-17T14:10:01;13.33;;;5.00;;
72132;SDS011;60008;50.826;6.896;2022-12-17T14:12:47;8.35;;;3.95;;
72132;SDS011;60008;50.826;6.896;2022-12-17T14:15:33;13.45;;;5.35;;
72132;SDS011;60008;50.826;6.896;2022-12-17T14:18:19;15.15;;;5.47;;
72132;SDS011;60008;50.826;6.896;2022-12-17T14:21:05;13.27;;;4.10;;
72132;SDS011;60008;50.826;6.896;2022-12-17T14:23:53;10.03;;;3.63;;
72132;SDS011;60008;50.826;6.896;2022-12-17T14:26:53;15.38;;;5.15;;
72132;SDS011;60008;50.826;6.896;2022-12-17T14:29:44;12.25;;;4.60;;
72132;SDS011;60008;50.826;6.896;2022-12-17T14:32:32;12.75;;;4.82;;
72132;SDS011;60008;50.826;6.896;2022-12-17T14:35:29;15.68;;;5.65;;
72132;SDS011;60008;50.826;6.896;2022-12-17T14:38:17;10.53;;;3.97;;
72132;SDS011;60008;50.826;6.896;2022-12-17T14:41:21;18.98;;;5.47;;
72132;SDS011;60008;50.826;6.896;2022-12-17T14:44:26;13.23;;;5.55;;
72132;SDS011;60008;50.826;6.896;2022-12-17T14:47:17;11.70;;;5.00;;
72132;SDS011;60008;50.826;6.896;2022-12-17T14:50:06;4.20;;;2.00;;
72132;SDS011;60008;50.826;6.896;2022-12-17T14:53:01;14.23;;;3.93;;
72132;SDS011;60008;50.826;6.896;2022-12-17T14:55:55;13.25;;;5.25;;
72132;SDS011;60008;50.826;6.896;2022-12-17T14:58:44;16.70;;;6.45;;
72132;SDS011;60008;50.826;6.896;2022-12-17T15:01:29;16.50;;;6.28;;
72132;SDS011;60008;50.826;6.896;2022-12-17T15:04:14;15.00;;;5.68;;
72132;SDS011;60008;50.826;6.896;2022-12-17T15:07:00;14.47;;;5.33;;
72132;SDS011;60008;50.826;6.896;2022-12-17T15:09:45;15.27;;;5.57;;
72132;SDS011;60008;50.826;6.896;2022-12-17T15:12:30;12.98;;;5.35;;
72132;SDS011;60008;50.826;6.896;2022-12-17T15:15:15;12.02;;;4.80;;
72132;SDS011;60008;50.826;6.896;2022-12-17T15:18:00;14.32;;;5.53;;
72132;SDS011;60008;50.826;6.896;2022-12-17T15:20:45;12.37;;;4.90;;
72132;SDS011;60008;50.826;6.896;2022-12-17T15:23:31;16.55;;;4.43;;
72132;SDS011;60008;50.826;6.896;2022-12-17T15:26:17;12.48;;;5.18;;
72132;SDS011;60008;50.826;6.896;2022-12-17T15:29:03;13.40;;;6.07;;
72132;SDS011;60008;50.826;6.896;2022-12-17T15:31:48;11.13;;;4.78;;
72132;SDS011;60008;50.826;6.896;2022-12-17T15:34:34;12.87;;;5.00;;
72132;SDS011;60008;50.826;6.896;2022-12-17T15:37:19;14.38;;;5.63;;
72132;SDS011;60008;50.826;6.896;2022-12-17T15:40:10;12.27;;;5.20;;
72132;SDS011;60008;50.826;6.896;2022-12-17T15:42:55;12.27;;;5.35;;
72132;SDS011;60008;50.826;6.896;2022-12-17T15:45:58;13.27;;;5.70;;
72132;SDS011;60008;50.826;6.896;2022-12-17T15:48:44;10.80;;;4.80;;
72132;SDS011;60008;50.826;6.896;2022-12-17T15:51:34;13.02;;;5.78;;
72132;SDS011;60008;50.826;6.896;2022-12-17T15:54:19;16.67;;;6.35;;
72132;SDS011;60008;50.826;6.896;2022-12-17T15:57:04;11.80;;;4.88;;
72132;SDS011;60008;50.826;6.896;2022-12-17T15:59:49;14.90;;;6.55;;
72132;SDS011;60008;50.826;6.896;2022-12-17T16:02:35;13.57;;;5.77;;
72132;SDS011;60008;50.826;6.896;2022-12-17T16:05:21;10.35;;;5.05;;
72132;SDS011;60008;50.826;6.896;2022-12-17T16:08:06;12.45;;;5.40;;
72132;SDS011;60008;50.826;6.896;2022-12-17T16:10:51;13.25;;;5.30;;
72132;SDS011;60008;50.826;6.896;2022-12-17T16:13:37;10.02;;;4.32;;
72132;SDS011;60008;50.826;6.896;2022-12-17T16:16:22;15.07;;;5.57;;
72132;SDS011;60008;50.826;6.896;2022-12-17T16:19:08;14.57;;;5.25;;
72132;SDS011;60008;50.826;6.896;2022-12-17T16:21:54;11.07;;;5.07;;
72132;SDS011;60008;50.826;6.896;2022-12-17T16:24:39;13.93;;;4.80;;
72132;SDS011;60008;50.826;6.896;2022-12-17T16:27:24;15.45;;;5.65;;
72132;SDS011;60008;50.826;6.896;2022-12-17T16:30:10;11.63;;;5.47;;
72132;SDS011;60008;50.826;6.896;2022-12-17T16:32:58;17.02;;;5.80;;
72132;SDS011;60008;50.826;6.896;2022-12-17T16:35:49;13.98;;;6.35;;
72132;SDS011;60008;50.826;6.896;2022-12-17T16:38:35;16.25;;;6.25;;
72132;SDS011;60008;50.826;6.896;2022-12-17T16:41:26;12.40;;;5.93;;
72132;SDS011;60008;50.826;6.896;2022-12-17T16:44:11;13.30;;;5.50;;
72132;SDS011;60008;50.826;6.896;2022-12-17T16:46:57;13.93;;;5.20;;
72132;SDS011;60008;50.826;6.896;2022-12-17T16:49:43;10.80;;;4.47;;
72132;SDS011;60008;50.826;6.896;2022-12-17T16:52:28;10.20;;;3.60;;
72132;SDS011;60008;50.826;6.896;2022-12-17T16:55:14;12.30;;;4.93;;
72132;SDS011;60008;50.826;6.896;2022-12-17T16:57:59;14.60;;;5.43;;
72132;SDS011;60008;50.826;6.896;2022-12-17T17:00:44;20.88;;;7.10;;
72132;SDS011;60008;50.826;6.896;2022-12-17T17:03:30;20.38;;;7.50;;
72132;SDS011;60008;50.826;6.896;2022-12-17T17:06:15;18.67;;;7.07;;
72132;SDS011;60008;50.826;6.896;2022-12-17T17:09:02;16.80;;;7.30;;
72132;SDS011;60008;50.826;6.896;2022-12-17T17:11:48;14.13;;;5.70;;
72132;SDS011;60008;50.826;6.896;2022-12-17T17:14:36;19.60;;;6.65;;
72132;SDS011;60008;50.826;6.896;2022-12-17T17:17:21;14.10;;;6.50;;
72132;SDS011;60008;50.826;6.896;2022-12-17T17:20:26;18.13;;;7.68;;
72132;SDS011;60008;50.826;6.896;2022-12-17T17:23:11;16.40;;;6.82;;
72132;SDS011;60008;50.826;6.896;2022-12-17T17:25:56;17.47;;;6.07;;
72132;SDS011;60008;50.826;6.896;2022-12-17T17:28:44;13.23;;;6.18;;
72132;SDS011;60008;50.826;6.896;2022-12-17T17:31:30;14.23;;;6.20;;
72132;SDS011;60008;50.826;6.896;2022-12-17T17:34:35;20.33;;;6.53;;
72132;SDS011;60008;50.826;6.896;2022-12-17T17:37:20;12.23;;;5.10;;
72132;SDS011;60008;50.826;6.896;2022-12-17T17:40:05;19.40;;;7.20;;
72132;SDS011;60008;50.826;6.896;2022-12-17T17:42:50;25.88;;;8.05;;
72132;SDS011;60008;50.826;6.896;2022-12-17T17:45:37;20.23;;;7.97;;
72132;SDS011;60008;50.826;6.896;2022-12-17T17:48:23;20.65;;;8.18;;
72132;SDS011;60008;50.826;6.896;2022-12-17T17:51:15;16.10;;;6.65;;
72132;SDS011;60008;50.826;6.896;2022-12-17T17:54:02;20.47;;;7.87;;
72132;SDS011;60008;50.826;6.896;2022-12-17T17:56:54;14.35;;;6.20;;
72132;SDS011;60008;50.826;6.896;2022-12-17T17:59:40;16.42;;;5.45;;
72132;SDS011;60008;50.826;6.896;2022-12-17T18:02:25;28.02;;;10.02;;
72132;SDS011;60008;50.826;6.896;2022-12-17T18:05:10;43.47;;;14.40;;
72132;SDS011;60008;50.826;6.896;2022-12-17T18:07:55;29.43;;;9.03;;
72132;SDS011;60008;50.826;6.896;2022-12-17T18:10:40;20.08;;;7.32;;
72132;SDS011;60008;50.826;6.896;2022-12-17T18:13:27;16.60;;;6.55;;
72132;SDS011;60008;50.826;6.896;2022-12-17T18:16:35;23.30;;;7.05;;
72132;SDS011;60008;50.826;6.896;2022-12-17T18:19:28;28.60;;;11.75;;
72132;SDS011;60008;50.826;6.896;2022-12-17T18:22:13;21.47;;;8.43;;
72132;SDS011;60008;50.826;6.896;2022-12-17T18:24:58;28.60;;;10.65;;
72132;SDS011;60008;50.826;6.896;2022-12-17T18:27:43;38.28;;;8.85;;
72132;SDS011;60008;50.826;6.896;2022-12-17T18:30:28;30.60;;;9.93;;
72132;SDS011;60008;50.826;6.896;2022-12-17T18:33:13;32.03;;;10.90;;
72132;SDS011;60008;50.826;6.896;2022-12-17T18:35:58;25.50;;;10.27;;